createdAt,value
2019-03-24T00:01:05.126Z,60.70
2019-03-24T00:03:35.015Z,59.73
2019-03-24T00:06:16.320Z,56.33
2019-03-24T00:08:50.327Z,59.00
2019-03-24T00:11:24.281Z,51.33
2019-03-24T00:13:59.959Z,57.20
2019-03-24T00:16:32.391Z,56.47
2019-03-24T00:19:03.437Z,55.00
2019-03-24T00:21:37.675Z,56.77
2019-03-24T00:24:08.830Z,61.23
2019-03-24T00:26:41.746Z,54.23
2019-03-24T00:29:15.186Z,58.37
2019-03-24T00:31:48.303Z,47.53
2019-03-24T00:34:19.588Z,53.13
2019-03-24T00:36:51.425Z,50.07
2019-03-24T00:39:25.920Z,51.53
2019-03-24T00:41:55.898Z,57.20
2019-03-24T00:44:27.323Z,58.07
2019-03-24T00:49:38.368Z,55.47
2019-03-24T00:52:09.765Z,57.37
2019-03-24T00:54:40.867Z,57.00
2019-03-24T00:57:12.190Z,61.60
2019-03-24T00:59:43.350Z,64.00
2019-03-24T01:02:15.516Z,59.80
2019-03-24T01:04:46.450Z,62.83
2019-03-24T01:07:16.359Z,62.00
2019-03-24T01:09:48.638Z,66.03
2019-03-24T01:12:21.562Z,61.40
2019-03-24T01:17:26.740Z,67.70
2019-03-24T01:20:00.705Z,63.90
2019-03-24T01:22:32.946Z,66.07
2019-03-24T01:25:04.526Z,67.13
2019-03-24T01:27:35.506Z,72.13
2019-03-24T01:30:11.966Z,71.70
2019-03-24T01:32:43.739Z,73.03
2019-03-24T01:35:14.934Z,73.20
2019-03-24T01:37:45.972Z,71.37
2019-03-24T01:40:18.501Z,77.60
2019-03-24T01:42:48.443Z,76.40
2019-03-24T01:45:20.184Z,74.53
2019-03-24T01:47:53.553Z,72.50
2019-03-24T01:50:24.599Z,75.63
2019-03-24T01:52:57.020Z,71.03
2019-03-24T01:55:28.025Z,83.23
2019-03-24T01:57:59.246Z,75.47
2019-03-24T02:00:32.504Z,65.37
2019-03-24T02:03:03.835Z,74.03
2019-03-24T02:05:34.882Z,66.20
2019-03-24T02:08:07.045Z,65.23
2019-03-24T02:10:39.352Z,70.77
2019-03-24T02:13:14.367Z,69.37
2019-03-24T02:15:45.662Z,65.90
2019-03-24T02:18:16.842Z,64.03
2019-03-24T02:20:49.956Z,62.53
2019-03-24T02:23:23.380Z,66.40
2019-03-24T02:25:55.828Z,68.13
2019-03-24T02:28:26.890Z,64.57
2019-03-24T02:30:59.314Z,64.80
2019-03-24T02:33:32.034Z,60.10
2019-03-24T02:36:03.636Z,62.80
2019-03-24T02:38:34.659Z,62.57
2019-03-24T02:41:07.037Z,62.27
2019-03-24T02:43:38.028Z,60.60
2019-03-24T02:46:23.589Z,56.27
2019-03-24T02:48:43.700Z,55.50
2019-03-24T02:51:17.535Z,55.93
2019-03-24T02:53:52.754Z,56.00
2019-03-24T02:56:25.743Z,58.67
2019-03-24T02:58:55.663Z,56.27
2019-03-24T03:01:25.107Z,63.70
2019-03-24T03:03:57.898Z,59.87
2019-03-24T03:06:27.675Z,55.27
2019-03-24T03:08:58.844Z,57.73
2019-03-24T03:11:28.172Z,62.87
2019-03-24T03:14:02.751Z,62.10
2019-03-24T03:16:38.791Z,56.83
2019-03-24T03:19:08.373Z,53.17
2019-03-24T03:21:38.339Z,55.97
2019-03-24T03:24:09.466Z,55.33
2019-03-24T03:26:39.329Z,57.30
2019-03-24T03:29:11.800Z,52.97
2019-03-24T03:31:41.672Z,59.20
2019-03-24T03:34:12.213Z,59.10
2019-03-24T03:36:43.307Z,62.87
2019-03-24T03:39:14.202Z,61.40
2019-03-24T03:41:45.226Z,63.40
2019-03-24T03:44:19.754Z,58.43
2019-03-24T03:46:53.270Z,54.40
2019-03-24T03:49:25.691Z,61.27
2019-03-24T03:51:58.017Z,52.30
2019-03-24T03:54:30.588Z,56.70
2019-03-24T03:57:02.912Z,57.97
2019-03-24T03:59:34.229Z,58.17
2019-03-24T04:02:05.672Z,55.27
2019-03-24T04:04:38.084Z,55.77
2019-03-24T04:07:12.751Z,60.63
2019-03-24T04:09:46.288Z,57.07
2019-03-24T04:12:16.291Z,55.47
2019-03-24T04:14:47.305Z,63.60
2019-03-24T04:17:18.665Z,56.07
2019-03-24T04:19:49.586Z,69.27
2019-03-24T04:22:23.568Z,57.03
2019-03-24T04:24:54.899Z,54.13
2019-03-24T04:27:27.253Z,61.03
2019-03-24T04:29:57.230Z,56.37
2019-03-24T04:32:29.606Z,57.43
2019-03-24T04:34:59.503Z,65.07
2019-03-24T04:37:32.960Z,51.30
2019-03-24T04:40:03.063Z,55.80
2019-03-24T04:42:35.324Z,54.00
2019-03-24T04:45:05.988Z,51.93
2019-03-24T04:47:55.399Z,56.00
2019-03-24T04:50:28.747Z,52.57
2019-03-24T04:52:58.852Z,54.03
2019-03-24T04:55:30.773Z,53.73
2019-03-24T04:58:20.028Z,55.13
2019-03-24T05:00:51.334Z,49.67
2019-03-24T05:03:22.297Z,51.33
2019-03-24T05:05:57.873Z,59.63
2019-03-24T05:08:30.355Z,51.83
2019-03-24T05:11:02.461Z,50.80
2019-03-24T05:13:35.985Z,50.07
2019-03-24T05:16:08.617Z,48.80
2019-03-24T05:18:39.217Z,51.00
2019-03-24T05:21:10.399Z,48.07
2019-03-24T05:23:46.097Z,46.47
2019-03-24T05:26:17.681Z,50.37
2019-03-24T05:28:49.463Z,49.10
2019-03-24T05:31:23.015Z,48.33
2019-03-24T05:33:55.357Z,44.97
2019-03-24T05:36:27.666Z,44.47
2019-03-24T05:38:58.708Z,47.80
2019-03-24T05:41:28.544Z,46.20
2019-03-24T05:44:00.372Z,45.20
2019-03-24T05:46:36.411Z,46.73
2019-03-24T05:49:06.332Z,47.53
2019-03-24T05:51:39.831Z,48.90
2019-03-24T05:54:10.975Z,54.37
2019-03-24T05:56:40.253Z,50.33
2019-03-24T05:59:11.253Z,45.77
2019-03-24T06:01:41.366Z,49.43
2019-03-24T06:04:16.073Z,51.53
2019-03-24T06:06:50.617Z,41.40
2019-03-24T06:09:41.264Z,43.30
2019-03-24T06:12:15.509Z,47.43
2019-03-24T06:15:04.774Z,43.07
2019-03-24T06:17:36.529Z,41.53
2019-03-24T06:20:09.204Z,48.23
2019-03-24T06:22:39.152Z,46.53
2019-03-24T06:25:29.931Z,43.67
2019-03-24T06:28:03.728Z,43.77
2019-03-24T06:30:34.772Z,43.60
2019-03-24T06:33:05.892Z,41.60
2019-03-24T06:35:39.447Z,44.27
2019-03-24T06:38:12.403Z,43.20
2019-03-24T06:40:44.158Z,44.57
2019-03-24T06:43:14.672Z,45.27
2019-03-24T06:45:44.648Z,43.77
2019-03-24T06:48:15.667Z,40.73
2019-03-24T06:50:47.011Z,45.37
2019-03-24T06:53:18.079Z,43.53
2019-03-24T06:55:51.199Z,48.20
2019-03-24T06:58:23.770Z,44.90
2019-03-24T07:00:55.166Z,46.80
2019-03-24T07:03:24.808Z,49.73
2019-03-24T07:05:54.584Z,42.00
2019-03-24T07:08:27.829Z,43.20
2019-03-24T07:10:57.267Z,41.60
2019-03-24T07:13:29.730Z,41.60
2019-03-24T07:16:02.837Z,44.97
2019-03-24T07:18:33.605Z,47.17
2019-03-24T07:21:03.717Z,40.80
2019-03-24T07:23:37.311Z,44.40
2019-03-24T07:26:08.077Z,43.77
2019-03-24T07:28:38.968Z,47.50
2019-03-24T07:31:11.679Z,40.73
2019-03-24T07:33:44.018Z,41.40
2019-03-24T07:36:15.157Z,42.60
2019-03-24T07:38:48.717Z,42.67
2019-03-24T07:41:21.979Z,40.53
2019-03-24T07:43:55.005Z,41.03
2019-03-24T07:46:27.365Z,40.63
2019-03-24T07:48:58.309Z,40.63
2019-03-24T07:51:29.365Z,41.17
2019-03-24T07:54:00.259Z,37.87
2019-03-24T07:56:33.435Z,41.23
2019-03-24T07:59:07.537Z,36.50
2019-03-24T08:01:46.057Z,38.10
2019-03-24T08:04:20.836Z,39.17
2019-03-24T08:06:52.947Z,38.03
2019-03-24T08:09:23.740Z,34.97
2019-03-24T08:11:56.565Z,40.37
2019-03-24T08:14:31.041Z,34.03
2019-03-24T08:17:05.523Z,36.63
2019-03-24T08:19:36.331Z,40.23
2019-03-24T08:22:06.335Z,37.50
2019-03-24T08:24:38.045Z,31.43
2019-03-24T08:27:12.831Z,32.00
2019-03-24T08:29:42.223Z,39.13
2019-03-24T08:32:14.575Z,30.63
2019-03-24T08:34:44.536Z,35.53
2019-03-24T08:37:17.286Z,28.57
2019-03-24T08:39:49.400Z,28.33
2019-03-24T08:42:20.551Z,30.83
2019-03-24T08:44:53.663Z,30.90
2019-03-24T08:47:27.754Z,28.27
2019-03-24T08:50:00.326Z,26.20
2019-03-24T08:52:31.611Z,24.47
2019-03-24T08:55:07.848Z,27.37
2019-03-24T08:57:37.749Z,26.03
2019-03-24T09:00:09.925Z,27.40
2019-03-24T09:02:41.522Z,24.80
2019-03-24T09:05:12.795Z,24.63
2019-03-24T09:07:44.896Z,26.70
2019-03-24T09:10:16.245Z,22.73
2019-03-24T09:12:47.903Z,25.17
2019-03-24T09:15:39.229Z,20.07
2019-03-24T09:18:10.159Z,23.23
2019-03-24T09:20:42.073Z,26.07
2019-03-24T09:23:13.502Z,20.13
2019-03-24T09:25:44.450Z,21.73
2019-03-24T09:28:15.797Z,22.10
2019-03-24T09:30:48.267Z,19.60
2019-03-24T09:33:20.490Z,20.47
2019-03-24T09:35:53.106Z,24.90
2019-03-24T09:38:26.970Z,25.67
2019-03-24T09:41:00.034Z,20.13
2019-03-24T09:43:33.811Z,21.30
2019-03-24T09:46:05.149Z,18.10
2019-03-24T09:48:36.148Z,40.27
2019-03-24T09:51:08.959Z,21.77
2019-03-24T09:53:42.851Z,21.67
2019-03-24T09:56:15.211Z,19.07
2019-03-24T09:58:50.375Z,22.93
2019-03-24T10:01:20.805Z,15.67
2019-03-24T10:03:52.320Z,13.60
2019-03-24T10:06:23.212Z,16.83
2019-03-24T10:08:54.287Z,18.07
2019-03-24T10:11:27.028Z,16.90
2019-03-24T10:13:56.326Z,18.83
2019-03-24T10:16:28.074Z,18.87
2019-03-24T10:18:59.133Z,20.07
2019-03-24T10:21:53.033Z,20.70
2019-03-24T10:24:24.598Z,18.23
2019-03-24T10:26:55.467Z,20.60
2019-03-24T10:29:26.467Z,16.00
2019-03-24T10:31:58.858Z,16.90
2019-03-24T10:34:30.224Z,19.40
2019-03-24T10:37:05.159Z,17.67
2019-03-24T10:39:36.386Z,16.40
2019-03-24T10:42:08.216Z,17.07
2019-03-24T10:44:40.362Z,14.73
2019-03-24T10:47:28.890Z,17.23
2019-03-24T10:50:00.303Z,19.17
2019-03-24T10:52:30.360Z,16.37
2019-03-24T10:55:02.255Z,16.70
2019-03-24T10:57:33.594Z,16.90
2019-03-24T11:00:07.474Z,21.33
2019-03-24T11:02:38.576Z,13.17
2019-03-24T11:05:10.999Z,13.63
2019-03-24T11:07:41.073Z,12.70
2019-03-24T11:10:12.736Z,13.10
2019-03-24T11:15:15.965Z,12.90
2019-03-24T11:17:49.427Z,14.33
2019-03-24T11:20:19.342Z,14.07
2019-03-24T11:22:50.259Z,15.80
2019-03-24T11:25:20.272Z,12.60
2019-03-24T11:27:53.117Z,17.10
2019-03-24T11:30:24.180Z,15.10
2019-03-24T11:32:57.156Z,15.53
2019-03-24T11:35:33.952Z,16.00
2019-03-24T11:38:03.796Z,14.00
2019-03-24T11:40:33.181Z,15.50
2019-03-24T11:43:02.179Z,14.53
2019-03-24T11:45:33.398Z,14.67
2019-03-24T11:48:04.521Z,18.27
2019-03-24T11:50:37.062Z,18.97
2019-03-24T11:53:08.455Z,18.13
2019-03-24T11:55:41.848Z,21.13
2019-03-24T11:58:14.935Z,17.10
2019-03-24T12:00:45.015Z,16.07
2019-03-24T12:03:15.203Z,20.27
2019-03-24T12:05:46.797Z,20.60
2019-03-24T12:08:22.535Z,15.90
2019-03-24T12:10:53.915Z,14.87
2019-03-24T12:13:27.218Z,18.20
2019-03-24T12:15:59.517Z,22.43
2019-03-24T12:18:31.825Z,19.60
2019-03-24T12:21:24.414Z,15.73
2019-03-24T12:23:59.266Z,15.20
2019-03-24T12:26:29.484Z,19.30
2019-03-24T12:29:00.841Z,20.50
2019-03-24T12:31:34.798Z,15.37
2019-03-24T12:34:05.591Z,16.37
2019-03-24T12:36:36.742Z,14.43
2019-03-24T12:39:09.927Z,12.77
2019-03-24T12:41:40.828Z,14.63
2019-03-24T12:44:11.750Z,14.40
2019-03-24T12:46:42.957Z,27.93
2019-03-24T12:49:14.196Z,17.20
2019-03-24T12:51:44.068Z,17.10
2019-03-24T12:54:14.968Z,13.43
2019-03-24T12:56:46.062Z,15.93
2019-03-24T12:59:15.907Z,13.67
2019-03-24T13:01:48.092Z,14.77
2019-03-24T13:04:20.480Z,16.40
2019-03-24T13:06:51.781Z,16.80
2019-03-24T13:09:22.970Z,14.73
2019-03-24T13:11:54.065Z,16.13
2019-03-24T13:14:30.586Z,14.13
2019-03-24T13:17:00.615Z,14.73
2019-03-24T13:19:35.978Z,14.23
2019-03-24T13:22:08.466Z,17.00
2019-03-24T13:24:39.623Z,14.37
2019-03-24T13:27:10.620Z,14.97
2019-03-24T13:29:41.534Z,16.30
2019-03-24T13:32:12.633Z,16.63
2019-03-24T13:34:43.410Z,15.27
2019-03-24T13:37:14.423Z,14.40
2019-03-24T13:39:45.731Z,16.43
2019-03-24T13:42:18.199Z,19.53
2019-03-24T13:44:50.362Z,14.60
2019-03-24T13:47:22.110Z,15.37
2019-03-24T13:49:53.914Z,13.93
2019-03-24T13:52:25.077Z,14.53
2019-03-24T13:54:55.916Z,15.20
2019-03-24T13:57:25.406Z,15.50
2019-03-24T13:59:57.138Z,18.47
2019-03-24T14:02:27.447Z,12.87
2019-03-24T14:04:57.434Z,16.43
2019-03-24T14:07:28.394Z,16.73
2019-03-24T14:10:00.569Z,19.27
2019-03-24T14:12:31.934Z,17.53
2019-03-24T14:15:01.304Z,16.07
2019-03-24T14:17:35.815Z,16.83
2019-03-24T14:20:07.859Z,19.80
2019-03-24T14:22:38.977Z,14.07
2019-03-24T14:25:11.191Z,15.93
2019-03-24T14:27:42.299Z,17.40
2019-03-24T14:30:14.064Z,19.20
2019-03-24T14:32:46.361Z,17.03
2019-03-24T14:35:16.998Z,14.37
2019-03-24T14:37:48.229Z,20.60
2019-03-24T14:40:19.250Z,17.30
2019-03-24T14:42:50.223Z,26.17
2019-03-24T14:45:23.551Z,18.63
2019-03-24T14:47:56.554Z,19.40
2019-03-24T14:50:28.995Z,14.67
2019-03-24T14:52:59.907Z,19.63
2019-03-24T14:55:30.999Z,17.10
2019-03-24T14:58:03.356Z,18.83
2019-03-24T15:00:44.559Z,19.37
2019-03-24T15:03:14.748Z,25.47
2019-03-24T15:05:47.106Z,17.07
2019-03-24T15:08:17.015Z,17.47
2019-03-24T15:10:49.238Z,19.40
2019-03-24T15:13:21.533Z,17.23
2019-03-24T15:15:51.431Z,22.83
2019-03-24T15:18:24.823Z,19.57
2019-03-24T15:21:05.157Z,17.57
2019-03-24T15:23:29.233Z,20.37
2019-03-24T15:26:00.245Z,17.60
2019-03-24T15:28:32.440Z,18.37
2019-03-24T15:31:02.487Z,17.50
2019-03-24T15:33:33.575Z,17.73
2019-03-24T15:36:05.873Z,21.07
2019-03-24T15:38:36.823Z,17.13
2019-03-24T15:41:09.216Z,16.03
2019-03-24T15:43:41.210Z,17.73
2019-03-24T15:46:15.201Z,23.30
2019-03-24T15:48:50.017Z,18.17
2019-03-24T15:51:21.587Z,18.97
2019-03-24T15:53:51.491Z,16.27
2019-03-24T15:56:25.443Z,22.83
2019-03-24T15:58:56.499Z,20.27
2019-03-24T16:01:29.906Z,17.60
2019-03-24T16:04:00.827Z,20.27
2019-03-24T16:06:34.886Z,17.30
2019-03-24T16:09:05.808Z,106.50
2019-03-24T16:11:37.116Z,28.43
2019-03-24T16:14:09.072Z,21.40
2019-03-24T16:16:39.120Z,23.80
2019-03-24T16:19:11.252Z,21.23
2019-03-24T16:21:43.085Z,22.67
2019-03-24T16:24:15.366Z,20.62
2019-03-24T16:26:46.722Z,19.20
2019-03-24T16:29:19.645Z,28.07
2019-03-24T16:31:49.632Z,27.03
2019-03-24T16:34:22.731Z,25.80
2019-03-24T16:36:55.228Z,23.60
2019-03-24T16:39:27.078Z,29.50
2019-03-24T16:42:00.242Z,25.73
2019-03-24T16:44:35.036Z,27.93
2019-03-24T16:47:07.642Z,29.53
2019-03-24T16:49:38.624Z,26.57
2019-03-24T16:52:11.116Z,22.37
2019-03-24T16:54:41.011Z,26.07
2019-03-24T16:57:12.738Z,25.13
2019-03-24T16:59:45.251Z,24.53
2019-03-24T17:02:17.050Z,28.17
2019-03-24T17:05:00.724Z,31.10
2019-03-24T17:07:31.607Z,26.13
2019-03-24T17:10:03.781Z,21.67
2019-03-24T17:12:36.118Z,20.97
2019-03-24T17:15:09.973Z,24.70
2019-03-24T17:17:42.455Z,26.40
2019-03-24T17:20:15.319Z,25.73
2019-03-24T17:22:45.258Z,27.20
2019-03-24T17:25:16.855Z,27.65
2019-03-24T17:27:48.146Z,28.80
2019-03-24T17:30:20.705Z,27.63
2019-03-24T17:32:54.748Z,26.17
2019-03-24T17:35:26.656Z,34.60
2019-03-24T17:37:59.016Z,25.77
2019-03-24T17:40:30.366Z,28.50
2019-03-24T17:43:01.546Z,32.43
2019-03-24T17:45:31.450Z,28.80
2019-03-24T17:48:02.680Z,30.43
2019-03-24T17:50:36.482Z,37.17
2019-03-24T17:53:14.507Z,32.10
2019-03-24T17:55:45.697Z,33.03
2019-03-24T17:58:15.623Z,27.25
2019-03-24T18:00:52.156Z,35.10
2019-03-24T18:03:24.851Z,31.40
2019-03-24T18:05:54.940Z,29.07
2019-03-24T18:08:24.159Z,33.00
2019-03-24T18:10:55.869Z,32.48
2019-03-24T18:13:27.200Z,37.83
2019-03-24T18:16:01.470Z,38.20
2019-03-24T18:18:32.698Z,43.10
2019-03-24T18:21:02.645Z,29.27
2019-03-24T18:23:34.143Z,27.03
2019-03-24T18:26:06.515Z,36.03
2019-03-24T18:28:44.658Z,30.20
2019-03-24T18:31:18.794Z,30.73
2019-03-24T18:33:50.271Z,33.20
2019-03-24T18:36:23.112Z,31.42
2019-03-24T18:38:54.727Z,32.13
2019-03-24T18:41:29.917Z,32.67
2019-03-24T18:43:59.725Z,33.33
2019-03-24T18:46:30.808Z,31.37
2019-03-24T18:49:05.083Z,32.77
2019-03-24T18:51:36.945Z,29.10
2019-03-24T18:54:07.032Z,27.37
2019-03-24T18:56:38.028Z,30.83
2019-03-24T19:01:43.104Z,27.33
2019-03-24T19:06:48.887Z,24.80
2019-03-24T19:09:19.072Z,31.67
2019-03-24T19:11:51.698Z,29.97
2019-03-24T19:14:21.495Z,27.32
2019-03-24T19:16:53.747Z,24.17
2019-03-24T19:19:24.782Z,28.27
2019-03-24T19:21:57.879Z,28.90
2019-03-24T19:24:28.913Z,27.37
2019-03-24T19:29:55.452Z,30.37
2019-03-24T19:32:27.798Z,30.63
2019-03-24T19:34:58.956Z,26.30
2019-03-24T19:37:33.179Z,31.30
2019-03-24T19:40:05.840Z,27.62
2019-03-24T19:42:39.371Z,30.13
2019-03-24T19:45:10.427Z,30.90
2019-03-24T19:47:45.159Z,32.40
2019-03-24T19:50:17.081Z,27.47
2019-03-24T19:52:46.867Z,30.07
2019-03-24T19:55:17.792Z,26.50
2019-03-24T19:57:50.814Z,31.87
2019-03-24T20:00:23.141Z,29.03
2019-03-24T20:02:54.410Z,29.80
2019-03-24T20:05:28.184Z,29.20
2019-03-24T20:07:59.594Z,30.53
2019-03-24T20:10:30.388Z,32.17
2019-03-24T20:13:04.753Z,32.53
2019-03-24T20:15:37.792Z,30.07
2019-03-24T20:18:10.059Z,33.27
2019-03-24T20:20:43.846Z,31.37
2019-03-24T20:23:15.617Z,38.27
2019-03-24T20:25:47.764Z,34.83
2019-03-24T20:28:20.883Z,29.53
2019-03-24T20:30:52.770Z,34.03
2019-03-24T20:33:23.335Z,32.10
2019-03-24T20:35:55.299Z,36.57
2019-03-24T20:38:36.535Z,33.96
2019-03-24T20:41:08.763Z,38.03
2019-03-24T20:43:38.807Z,60.17
2019-03-24T20:46:12.484Z,29.67
2019-03-24T20:48:43.548Z,30.27
2019-03-24T20:51:15.835Z,35.23
2019-03-24T20:53:46.822Z,30.03
2019-03-24T20:56:17.273Z,31.00
2019-03-24T20:58:48.617Z,32.87
2019-03-24T21:01:20.054Z,33.58
2019-03-24T21:03:51.239Z,31.13
2019-03-24T21:06:22.103Z,40.97
2019-03-24T21:08:54.792Z,32.90
2019-03-24T21:11:25.848Z,29.67
2019-03-24T21:13:58.050Z,28.47
2019-03-24T21:16:30.711Z,36.57
2019-03-24T21:19:01.551Z,33.63
2019-03-24T21:21:32.512Z,29.30
2019-03-24T21:24:03.523Z,30.23
2019-03-24T21:26:35.929Z,29.63
2019-03-24T21:29:05.894Z,27.37
2019-03-24T21:31:38.726Z,31.83
2019-03-24T21:34:09.872Z,36.77
2019-03-24T21:36:39.910Z,35.07
2019-03-24T21:39:12.505Z,38.60
2019-03-24T21:41:43.451Z,38.43
2019-03-24T21:44:18.176Z,37.87
2019-03-24T21:46:48.113Z,38.23
2019-03-24T21:49:19.434Z,42.63
2019-03-24T21:51:50.312Z,39.77
2019-03-24T21:54:22.698Z,40.98
2019-03-24T21:56:54.033Z,44.83
2019-03-24T21:59:25.476Z,42.47
2019-03-24T22:02:00.430Z,39.65
2019-03-24T22:04:31.440Z,40.70
2019-03-24T22:07:07.283Z,41.77
2019-03-24T22:09:41.335Z,42.73
2019-03-24T22:12:13.562Z,42.50
2019-03-24T22:14:43.561Z,38.57
2019-03-24T22:17:14.666Z,41.75
2019-03-24T22:19:46.135Z,45.27
2019-03-24T22:22:19.241Z,41.23
2019-03-24T22:24:50.371Z,39.30
2019-03-24T22:27:23.074Z,37.33
2019-03-24T22:29:54.066Z,44.37
2019-03-24T22:32:27.237Z,44.53
2019-03-24T22:34:59.782Z,40.10
2019-03-24T22:37:30.775Z,45.73
2019-03-24T22:40:00.794Z,37.53
2019-03-24T22:42:31.760Z,41.60
2019-03-24T22:45:02.852Z,45.60
2019-03-24T22:47:32.761Z,36.40
2019-03-24T22:50:04.797Z,45.80
2019-03-24T22:52:34.665Z,44.93
2019-03-24T22:55:05.275Z,38.30
2019-03-24T22:57:36.212Z,42.73
2019-03-24T23:00:10.985Z,38.80
2019-03-24T23:02:40.883Z,43.90
2019-03-24T23:05:12.251Z,39.35
2019-03-24T23:07:43.191Z,33.23
2019-03-24T23:10:15.696Z,44.00
2019-03-24T23:12:46.681Z,42.90
2019-03-24T23:15:17.659Z,42.10
2019-03-24T23:17:47.549Z,42.03
2019-03-24T23:20:17.528Z,67.93
2019-03-24T23:22:50.826Z,82.22
2019-03-24T23:25:21.870Z,65.20
2019-03-24T23:27:52.964Z,42.40
2019-03-24T23:30:24.375Z,42.27
2019-03-24T23:32:55.592Z,39.60
2019-03-24T23:35:25.529Z,41.03
2019-03-24T23:37:56.578Z,36.80
2019-03-24T23:40:27.714Z,38.63
2019-03-24T23:42:57.451Z,39.43
2019-03-24T23:45:29.810Z,36.53
2019-03-24T23:48:02.200Z,36.13
2019-03-24T23:50:33.348Z,37.67
2019-03-24T23:53:03.393Z,41.27
2019-03-24T23:55:36.022Z,42.47
2019-03-24T23:58:06.801Z,39.17
